Westlake, Ohio
Current Conditions -  °F | °C
As of 6:51 PM on Friday 19 Dec 2014 (Local Time) from KCLE Reporting Station
Overcast Overcast  
Wind Chill: -5°   Ceiling: 2500
Heat Index: -2°   Visibility: 10mi
Dew Point: -6°   Wind: 6mph
Humidity: 72%   Direction: 260°W
Pressure: 30.32"   Gusts: NA
Location:  41.46°N, 81.92°W
Report Text: KCLE 192351Z 26005KT 10SM OVC025 M02/M06 A3032 RMK AO2 SLP277 T10171061 11006 21017 53013
Loading
Personal Weather Stations






























Interactive Weather Map New forecast layout! Learn more

10-Day Weather Forecast

Advertisements
Track Severe Weather on mobile